Retour à l'actu

LFPG

METAR

LFPG 160130Z 21014KT 9999 BKN017 BKN046 14/10 Q1008 NOSIG

TAF

LFPG 152300Z
  • | 1600/1706 21015KT 9999 BKN025 TX19/1615Z TN13/1603Z
  • | TEMPO 1604/1612 BKN012
  • | PROB40 TEMPO 1606/1611 4000 -RA BKN008
  • | TEMPO 1610/1614 19015G25KT
  • | PROB40 TEMPO 1612/1621 4000 -SHRA SCT040TCU
  • | PROB30 TEMPO 1617/1621 2000 SHRA SCT040CB
  • | TEMPO 1623/1706 4000 -RA BKN012 SCT020TCU
  • | PROB30 TEMPO 1700/1706 2000 SHRA BKN006 SCT020CB